Time;durP1;ratioP1;P1;durP2;ratioP2;P2;SDS_P1;SDS_P2;PMS_P1;PMS_P2;Temp;Humidity;BMP_temperature;BMP_pressure;BME280_temperature;BME280_humidity;BME280_pressure;Samples;Min_cycle;Max_cycle;Signal;HPM_P1;HPM_P2
2021/11/10 00:00:11;;;;;;;0.20;0.20;;;;;;;;;;5082822;28;20225;-73
2021/11/10 00:02:38;;;;;;;0.10;0.10;;;;;;;;;;5082442;28;20218;-73
2021/11/10 00:05:05;;;;;;;0.10;0.10;;;;;;;;;;5082434;28;20551;-73
2021/11/10 00:07:32;;;;;;;0.10;0.10;;;;;;;;;;5082335;28;20230;-73
2021/11/10 00:09:59;;;;;;;0.20;0.20;;;;;;;;;;5082866;28;20203;-72
2021/11/10 00:12:25;;;;;;;0.20;0.20;;;;;;;;;;5082800;28;20206;-72
2021/11/10 00:14:51;;;;;;;0.10;0.10;;;;;;;;;;5082718;28;20442;-72
2021/11/10 00:17:17;;;;;;;0.10;0.10;;;;;;;;;;5082714;28;20202;-72
2021/11/10 00:19:44;;;;;;;0.10;0.10;;;;;;;;;;5091308;28;20206;-72
2021/11/10 00:22:10;;;;;;;0.10;0.10;;;;;;;;;;5082663;28;20203;-72
2021/11/10 00:24:38;;;;;;;0.10;0.10;;;;;;;;;;5082118;28;20203;-72
2021/11/10 00:27:04;;;;;;;0.10;0.10;;;;;;;;;;5082640;28;20378;-72
2021/11/10 00:29:30;;;;;;;0.17;0.17;;;;;;;;;;5084089;28;20206;-72
2021/11/10 00:31:57;;;;;;;0.10;0.10;;;;;;;;;;5086204;28;20223;-73
2021/11/10 00:34:23;;;;;;;0.20;0.20;;;;;;;;;;5086562;28;20206;-73
2021/11/10 00:36:49;;;;;;;0.20;0.20;;;;;;;;;;5086225;28;20198;-73
2021/11/10 00:39:15;;;;;;;0.10;0.10;;;;;;;;;;5086520;28;20227;-73
2021/11/10 00:41:43;;;;;;;0.10;0.10;;;;;;;;;;5086417;28;20244;-73
2021/11/10 00:44:09;;;;;;;0.20;0.20;;;;;;;;;;5085912;28;20226;-72
2021/11/10 00:46:35;;;;;;;0.10;0.10;;;;;;;;;;5086158;28;20229;-73
2021/11/10 00:49:02;;;;;;;0.10;0.10;;;;;;;;;;5086190;28;20210;-73
2021/11/10 00:51:28;;;;;;;0.10;0.10;;;;;;;;;;5085854;28;20210;-73
2021/11/10 00:53:55;;;;;;;0.13;0.13;;;;;;;;;;5085523;28;20564;-73
2021/11/10 00:56:21;;;;;;;0.10;0.10;;;;;;;;;;5086164;28;20430;-72
2021/11/10 00:58:49;;;;;;;0.10;0.10;;;;;;;;;;5085721;28;20206;-73
2021/11/10 01:01:15;;;;;;;0.20;0.20;;;;;;;;;;5085672;28;20241;-73
2021/11/10 01:03:42;;;;;;;0.20;0.20;;;;;;;;;;5085939;28;20206;-73
2021/11/10 01:06:08;;;;;;;0.10;0.10;;;;;;;;;;5085944;28;20232;-72
2021/11/10 01:08:34;;;;;;;0.10;0.10;;;;;;;;;;5086312;28;20411;-72
2021/11/10 01:11:00;;;;;;;0.20;0.20;;;;;;;;;;5085610;28;20230;-73
2021/11/10 01:13:27;;;;;;;0.20;0.20;;;;;;;;;;5085672;28;20216;-72
2021/11/10 01:15:55;;;;;;;0.10;0.10;;;;;;;;;;5085503;28;20244;-72
2021/11/10 01:18:21;;;;;;;0.20;0.20;;;;;;;;;;5085414;28;20229;-72
2021/11/10 01:20:47;;;;;;;0.20;0.20;;;;;;;;;;5085822;28;20445;-72
2021/11/10 01:23:14;;;;;;;0.10;0.10;;;;;;;;;;5085103;28;20210;-71
2021/11/10 01:25:40;;;;;;;0.10;0.10;;;;;;;;;;5085503;28;20451;-72
2021/11/10 01:28:07;;;;;;;0.20;0.20;;;;;;;;;;5085344;28;20287;-71
2021/11/10 01:30:33;;;;;;;0.10;0.10;;;;;;;;;;5085490;28;20241;-72
2021/11/10 01:33:01;;;;;;;0.10;0.10;;;;;;;;;;5085038;28;20223;-71
2021/11/10 01:35:27;;;;;;;0.20;0.20;;;;;;;;;;5085425;28;20369;-72
2021/11/10 01:37:53;;;;;;;0.10;0.10;;;;;;;;;;5085305;28;20506;-72
2021/11/10 01:40:20;;;;;;;0.17;0.17;;;;;;;;;;5084696;28;20258;-73
2021/11/10 01:42:47;;;;;;;0.20;0.20;;;;;;;;;;5084751;28;20205;-73
2021/11/10 01:45:14;;;;;;;0.20;0.20;;;;;;;;;;5084729;28;20422;-71
2021/11/10 01:47:41;;;;;;;0.20;0.20;;;;;;;;;;5101232;28;20278;-73
2021/11/10 01:50:10;;;;;;;0.20;0.20;;;;;;;;;;5102427;28;20491;-72
2021/11/10 01:52:37;;;;;;;0.10;0.10;;;;;;;;;;5091685;28;20245;-71
2021/11/10 01:55:03;;;;;;;0.20;0.20;;;;;;;;;;5104595;28;20250;-71
2021/11/10 01:57:30;;;;;;;0.17;0.17;;;;;;;;;;5103470;28;20200;-72
2021/11/10 02:00:03;;;;;;;0.10;0.10;;;;;;;;;;5105179;28;20400;-71
2021/11/10 02:02:30;;;;;;;0.10;0.10;;;;;;;;;;5105158;28;20484;-72
2021/11/10 02:04:57;;;;;;;0.10;0.10;;;;;;;;;;5104726;28;20345;-72
2021/11/10 02:07:25;;;;;;;0.30;0.30;;;;;;;;;;5104977;28;20225;-72
2021/11/10 02:09:52;;;;;;;0.20;0.20;;;;;;;;;;5104699;28;20211;-71
2021/11/10 02:12:19;;;;;;;1.63;1.63;;;;;;;;;;5104961;28;20217;-72
2021/11/10 02:14:45;;;;;;;0.20;0.20;;;;;;;;;;5091574;28;20244;-72
2021/11/10 02:17:13;;;;;;;0.20;0.20;;;;;;;;;;5084555;28;20203;-72
2021/11/10 02:19:39;;;;;;;0.10;0.10;;;;;;;;;;5084484;28;20206;-72
2021/11/10 02:22:07;;;;;;;0.20;0.20;;;;;;;;;;5084366;28;20514;-72
2021/11/10 02:24:33;;;;;;;0.20;0.20;;;;;;;;;;5084439;28;20203;-72
2021/11/10 02:26:59;;;;;;;0.20;0.20;;;;;;;;;;5084283;28;20234;-72
2021/11/10 02:29:26;;;;;;;0.20;0.20;;;;;;;;;;5084258;28;20280;-72
2021/11/10 02:31:53;;;;;;;0.30;0.30;;;;;;;;;;5084120;28;20225;-72
2021/11/10 02:34:20;;;;;;;0.20;0.20;;;;;;;;;;5097315;28;20402;-73
2021/11/10 02:36:46;;;;;;;0.20;0.20;;;;;;;;;;5103465;28;20205;-71
2021/11/10 02:39:16;;;;;;;0.20;0.20;;;;;;;;;;5092759;28;20209;-72
2021/11/10 02:41:46;;;;;;;0.20;0.20;;;;;;;;;;5084098;28;20202;-72
2021/11/10 02:44:13;;;;;;;0.20;0.20;;;;;;;;;;5083541;28;20407;-72
2021/11/10 02:46:39;;;;;;;0.20;0.20;;;;;;;;;;5083980;28;20201;-71
2021/11/10 02:49:05;;;;;;;0.20;0.20;;;;;;;;;;5083780;28;20239;-72
2021/11/10 02:51:32;;;;;;;0.30;0.30;;;;;;;;;;5083927;28;20213;-72
2021/11/10 02:53:58;;;;;;;0.20;0.20;;;;;;;;;;5082772;28;20211;-72
2021/11/10 02:56:25;;;;;;;0.10;0.10;;;;;;;;;;5083757;28;20205;-73
2021/11/10 02:58:52;;;;;;;2.30;2.20;;;;;;;;;;5083766;28;20213;-72
2021/11/10 03:01:18;;;;;;;0.20;0.20;;;;;;;;;;5083562;28;20205;-72
2021/11/10 03:03:44;;;;;;;0.10;0.10;;;;;;;;;;5083487;28;20376;-72
2021/11/10 03:06:10;;;;;;;0.20;0.20;;;;;;;;;;5083272;28;20203;-73
2021/11/10 03:08:38;;;;;;;0.20;0.20;;;;;;;;;;5083538;28;20594;-73
2021/11/10 03:11:05;;;;;;;0.10;0.10;;;;;;;;;;5083190;28;20264;-73
2021/11/10 03:13:33;;;;;;;0.33;0.33;;;;;;;;;;5083538;28;20209;-73
2021/11/10 03:15:59;;;;;;;0.20;0.20;;;;;;;;;;5083626;28;20228;-73
2021/11/10 03:18:25;;;;;;;0.10;0.10;;;;;;;;;;5082944;28;20201;-73
2021/11/10 03:20:51;;;;;;;0.20;0.20;;;;;;;;;;5083002;28;20239;-72
2021/11/10 03:23:18;;;;;;;0.20;0.20;;;;;;;;;;5082990;28;20206;-73
2021/11/10 03:25:44;;;;;;;0.20;0.20;;;;;;;;;;5083192;28;20225;-73
2021/11/10 03:28:11;;;;;;;0.20;0.20;;;;;;;;;;5088283;28;20220;-73
2021/11/10 03:30:38;;;;;;;0.20;0.20;;;;;;;;;;5103491;28;20503;-72
2021/11/10 03:33:05;;;;;;;0.10;0.10;;;;;;;;;;5095662;28;20224;-72
2021/11/10 03:35:31;;;;;;;0.20;0.20;;;;;;;;;;5083207;28;20226;-72
2021/11/10 03:37:57;;;;;;;0.20;0.20;;;;;;;;;;5082873;28;20368;-72
2021/11/10 03:40:24;;;;;;;0.20;0.20;;;;;;;;;;5083141;28;20206;-72
2021/11/10 03:42:50;;;;;;;0.20;0.20;;;;;;;;;;5083009;28;20573;-72
2021/11/10 03:45:16;;;;;;;0.20;0.20;;;;;;;;;;5082271;28;20334;-73
2021/11/10 03:47:44;;;;;;;0.20;0.20;;;;;;;;;;5082831;28;20223;-73
2021/11/10 03:50:10;;;;;;;0.20;0.20;;;;;;;;;;5082974;28;20299;-72
2021/11/10 03:52:36;;;;;;;0.20;0.20;;;;;;;;;;5083130;28;20403;-72
2021/11/10 03:55:03;;;;;;;1.30;1.30;;;;;;;;;;5082894;28;20208;-73
2021/11/10 03:57:29;;;;;;;0.20;0.20;;;;;;;;;;5082843;28;20203;-72
2021/11/10 03:59:55;;;;;;;0.20;0.20;;;;;;;;;;5082962;28;20238;-72
2021/11/10 04:02:21;;;;;;;0.10;0.10;;;;;;;;;;5082772;28;20395;-73
2021/11/10 04:04:49;;;;;;;0.20;0.20;;;;;;;;;;5081830;28;20213;-72
2021/11/10 04:07:15;;;;;;;0.33;0.33;;;;;;;;;;5082312;28;20210;-72
2021/11/10 04:09:41;;;;;;;0.20;0.20;;;;;;;;;;5082743;28;20209;-72
2021/11/10 04:12:08;;;;;;;9.20;8.80;;;;;;;;;;5082981;28;20203;-72
2021/11/10 04:14:34;;;;;;;0.20;0.20;;;;;;;;;;5082722;28;20342;-72
2021/11/10 04:17:01;;;;;;;0.13;0.13;;;;;;;;;;5082847;28;20237;-72
2021/11/10 04:19:28;;;;;;;0.20;0.20;;;;;;;;;;5082622;28;20199;-72
2021/11/10 04:21:56;;;;;;;0.20;0.20;;;;;;;;;;5076259;28;20208;-72
2021/11/10 04:24:22;;;;;;;0.60;0.60;;;;;;;;;;5082398;28;20208;-72
2021/11/10 04:26:48;;;;;;;0.20;0.20;;;;;;;;;;5082706;28;20204;-73
2021/11/10 04:29:15;;;;;;;0.10;0.10;;;;;;;;;;5082524;28;20587;-72
2021/11/10 04:31:41;;;;;;;0.20;0.20;;;;;;;;;;5082399;28;20276;-72
2021/11/10 04:34:07;;;;;;;0.20;0.20;;;;;;;;;;5082068;28;20253;-71
2021/11/10 04:36:34;;;;;;;0.20;0.20;;;;;;;;;;5082053;28;20204;-72
2021/11/10 04:39:01;;;;;;;0.20;0.20;;;;;;;;;;5082553;28;20250;-72
2021/11/10 04:41:27;;;;;;;0.20;0.20;;;;;;;;;;5082473;28;20246;-73
2021/11/10 04:43:54;;;;;;;0.20;0.20;;;;;;;;;;5086481;28;20483;-72
2021/11/10 04:46:24;;;;;;;0.70;0.70;;;;;;;;;;5082475;28;20273;-73
2021/11/10 04:48:50;;;;;;;0.20;0.20;;;;;;;;;;5082399;28;20246;-73
2021/11/10 04:51:17;;;;;;;0.20;0.20;;;;;;;;;;5082478;28;20502;-73
2021/11/10 04:53:46;;;;;;;0.30;0.30;;;;;;;;;;5082110;28;20204;-73
2021/11/10 04:56:16;;;;;;;0.17;0.17;;;;;;;;;;5087196;28;20455;-72
2021/11/10 04:58:43;;;;;;;0.20;0.20;;;;;;;;;;5082071;28;20320;-71
2021/11/10 05:01:17;;;;;;;5.13;4.83;;;;;;;;;;5081972;28;20209;-72
2021/11/10 05:03:43;;;;;;;0.20;0.20;;;;;;;;;;5082091;28;20201;-72
2021/11/10 05:06:09;;;;;;;0.50;0.50;;;;;;;;;;5081875;28;20207;-72
2021/11/10 05:08:35;;;;;;;0.20;0.20;;;;;;;;;;5081822;28;20243;-73
2021/11/10 05:11:02;;;;;;;0.10;0.10;;;;;;;;;;5082294;28;20224;-73
2021/11/10 05:13:29;;;;;;;0.20;0.20;;;;;;;;;;5082214;28;20205;-72
2021/11/10 05:15:56;;;;;;;0.20;0.20;;;;;;;;;;5082121;28;20251;-73
2021/11/10 05:18:22;;;;;;;0.20;0.20;;;;;;;;;;5085682;28;20200;-73
2021/11/10 05:20:49;;;;;;;0.20;0.20;;;;;;;;;;5085407;28;20394;-74
2021/11/10 05:23:16;;;;;;;0.20;0.20;;;;;;;;;;5085378;28;20210;-72
2021/11/10 05:25:42;;;;;;;0.20;0.20;;;;;;;;;;5085257;28;20230;-74
2021/11/10 05:28:08;;;;;;;0.20;0.20;;;;;;;;;;5085555;28;20226;-72
2021/11/10 05:30:37;;;;;;;0.20;0.20;;;;;;;;;;5093151;28;20201;-71
2021/11/10 05:33:03;;;;;;;0.20;0.20;;;;;;;;;;5087134;28;20242;-73
2021/11/10 05:35:29;;;;;;;0.20;0.20;;;;;;;;;;5096940;28;20216;-74
2021/11/10 05:37:55;;;;;;;0.20;0.20;;;;;;;;;;5085188;28;20235;-73
2021/11/10 05:40:22;;;;;;;0.20;0.20;;;;;;;;;;5089921;28;20205;-73
2021/11/10 05:42:48;;;;;;;0.20;0.20;;;;;;;;;;5085124;28;20426;-73
2021/11/10 05:45:14;;;;;;;0.20;0.20;;;;;;;;;;5085163;28;20298;-73
2021/11/10 05:47:43;;;;;;;0.20;0.20;;;;;;;;;;5085256;28;20499;-73
2021/11/10 05:50:10;;;;;;;0.20;0.20;;;;;;;;;;5084649;28;20206;-73
2021/11/10 05:52:37;;;;;;;0.20;0.20;;;;;;;;;;5085041;28;20203;-71
2021/11/10 05:55:04;;;;;;;0.20;0.20;;;;;;;;;;5084718;28;20223;-71
2021/11/10 05:57:30;;;;;;;0.30;0.30;;;;;;;;;;5084916;28;20496;-73
2021/11/10 05:59:56;;;;;;;0.20;0.20;;;;;;;;;;5084937;28;20260;-72
2021/11/10 06:02:23;;;;;;;0.20;0.20;;;;;;;;;;5084937;28;20206;-72
2021/11/10 06:04:50;;;;;;;0.10;0.10;;;;;;;;;;5084888;28;20201;-73
2021/11/10 06:07:16;;;;;;;0.10;0.10;;;;;;;;;;5084768;28;20278;-72
2021/11/10 06:09:43;;;;;;;0.20;0.20;;;;;;;;;;5084529;28;20227;-72
2021/11/10 06:12:10;;;;;;;0.20;0.20;;;;;;;;;;5084816;28;20266;-73
2021/11/10 06:14:36;;;;;;;0.20;0.20;;;;;;;;;;5084774;28;20226;-72
2021/11/10 06:17:04;;;;;;;0.20;0.20;;;;;;;;;;5087255;28;20211;-72
2021/11/10 06:19:30;;;;;;;0.20;0.20;;;;;;;;;;5101600;28;20204;-72
2021/11/10 06:21:58;;;;;;;0.20;0.20;;;;;;;;;;5094402;28;20260;-72
2021/11/10 06:24:25;;;;;;;0.10;0.10;;;;;;;;;;5080079;28;20212;-72
2021/11/10 06:26:51;;;;;;;0.20;0.20;;;;;;;;;;5092134;28;20204;-73
2021/11/10 06:29:17;;;;;;;0.20;0.20;;;;;;;;;;5084201;28;20274;-73
2021/11/10 06:31:43;;;;;;;0.20;0.20;;;;;;;;;;5084149;28;20223;-73
2021/11/10 06:34:10;;;;;;;2.73;2.63;;;;;;;;;;5084294;28;20514;-73
2021/11/10 06:36:36;;;;;;;0.60;0.60;;;;;;;;;;5083867;28;20201;-73
2021/11/10 06:39:04;;;;;;;0.20;0.20;;;;;;;;;;5083670;28;20197;-72
2021/11/10 06:41:30;;;;;;;0.20;0.20;;;;;;;;;;5083904;28;20250;-72
2021/11/10 06:43:56;;;;;;;0.20;0.20;;;;;;;;;;5083834;28;20499;-72
2021/11/10 06:46:23;;;;;;;0.17;0.17;;;;;;;;;;5083663;28;20204;-72
2021/11/10 06:48:49;;;;;;;0.20;0.20;;;;;;;;;;5083899;28;20252;-73
2021/11/10 06:51:15;;;;;;;0.10;0.10;;;;;;;;;;5083531;28;20458;-73
2021/11/10 06:53:42;;;;;;;0.20;0.20;;;;;;;;;;5083710;28;20203;-73
2021/11/10 06:56:10;;;;;;;0.20;0.20;;;;;;;;;;5083854;28;20204;-73
2021/11/10 06:58:36;;;;;;;0.20;0.20;;;;;;;;;;5083741;28;20225;-73
2021/11/10 07:01:03;;;;;;;0.20;0.20;;;;;;;;;;5083354;28;20541;-73
2021/11/10 07:03:29;;;;;;;0.20;0.20;;;;;;;;;;5084155;28;20212;-72
2021/11/10 07:05:56;;;;;;;0.20;0.20;;;;;;;;;;5083377;28;20210;-72
2021/11/10 07:08:22;;;;;;;0.20;0.20;;;;;;;;;;5081893;28;20425;-70
2021/11/10 07:10:48;;;;;;;0.20;0.20;;;;;;;;;;5083333;28;20204;-73
2021/11/10 07:13:16;;;;;;;0.20;0.20;;;;;;;;;;5081502;28;20438;-71
2021/11/10 07:15:42;;;;;;;0.10;0.10;;;;;;;;;;5083173;28;20221;-71
2021/11/10 07:18:09;;;;;;;0.20;0.20;;;;;;;;;;5083369;28;20215;-71
2021/11/10 07:20:35;;;;;;;0.20;0.20;;;;;;;;;;5083019;28;20231;-72
2021/11/10 07:23:01;;;;;;;0.20;0.20;;;;;;;;;;5083259;28;20214;-71
2021/11/10 07:25:28;;;;;;;0.17;0.17;;;;;;;;;;5082914;28;20203;-72
2021/11/10 07:27:55;;;;;;;0.10;0.10;;;;;;;;;;5083160;28;20431;-71
2021/11/10 07:30:22;;;;;;;0.20;0.20;;;;;;;;;;5082999;28;20229;-71
2021/11/10 07:32:49;;;;;;;0.20;0.20;;;;;;;;;;5083007;28;20461;-72
2021/11/10 07:35:15;;;;;;;0.20;0.20;;;;;;;;;;5082739;28;20227;-71
2021/11/10 07:37:44;;;;;;;0.20;0.20;;;;;;;;;;5083627;28;20251;-72
2021/11/10 07:40:11;;;;;;;0.20;0.20;;;;;;;;;;5082191;28;20210;-72
2021/11/10 07:42:38;;;;;;;0.20;0.20;;;;;;;;;;5082625;28;20255;-72
2021/11/10 07:45:09;;;;;;;0.23;0.23;;;;;;;;;;5090750;28;20212;-72
2021/11/10 07:47:41;;;;;;;0.20;0.20;;;;;;;;;;5080828;28;20207;-73
2021/11/10 07:50:08;;;;;;;0.20;0.20;;;;;;;;;;5080964;28;20446;-73
2021/11/10 07:52:34;;;;;;;0.20;0.20;;;;;;;;;;5082970;28;20201;-73
2021/11/10 07:55:00;;;;;;;0.10;0.10;;;;;;;;;;5083120;28;20258;-73
2021/11/10 07:57:27;;;;;;;0.20;0.20;;;;;;;;;;5082882;28;20522;-73
2021/11/10 07:59:53;;;;;;;0.20;0.20;;;;;;;;;;5085217;28;20513;-73
2021/11/10 08:02:20;;;;;;;0.20;0.20;;;;;;;;;;5083421;28;20203;-72
2021/11/10 08:04:47;;;;;;;0.20;0.20;;;;;;;;;;5079934;28;20204;-72
2021/11/10 08:07:13;;;;;;;0.40;0.40;;;;;;;;;;5082506;28;20274;-73
2021/11/10 08:09:40;;;;;;;0.20;0.20;;;;;;;;;;5083069;28;20263;-73
2021/11/10 08:12:06;;;;;;;0.20;0.20;;;;;;;;;;5082706;28;20397;-72
2021/11/10 08:14:33;;;;;;;0.20;0.20;;;;;;;;;;5082643;28;20354;-71
2021/11/10 08:16:59;;;;;;;0.23;0.23;;;;;;;;;;5082558;28;20435;-72
2021/11/10 08:19:25;;;;;;;0.20;0.20;;;;;;;;;;5082655;28;20499;-73
2021/11/10 08:21:53;;;;;;;0.20;0.20;;;;;;;;;;5070617;28;20212;-72
2021/11/10 08:24:19;;;;;;;0.20;0.20;;;;;;;;;;5082775;28;20205;-72
2021/11/10 08:26:45;;;;;;;0.17;0.17;;;;;;;;;;5082674;28;20229;-71
2021/11/10 08:29:11;;;;;;;0.20;0.20;;;;;;;;;;5082270;28;20229;-72
2021/11/10 08:31:38;;;;;;;0.20;0.20;;;;;;;;;;5090913;28;20270;-70
2021/11/10 08:34:04;;;;;;;0.20;0.20;;;;;;;;;;5092650;28;20495;-71
2021/11/10 08:36:30;;;;;;;0.17;0.17;;;;;;;;;;5096533;28;20263;-69
2021/11/10 08:38:58;;;;;;;0.20;0.20;;;;;;;;;;5093351;28;20536;-72
2021/11/10 08:41:25;;;;;;;0.10;0.10;;;;;;;;;;5082724;28;20417;-72
2021/11/10 08:43:51;;;;;;;1.40;1.40;;;;;;;;;;5082103;28;20510;-71
2021/11/10 08:46:19;;;;;;;0.10;0.10;;;;;;;;;;5082211;28;20207;-72
2021/11/10 08:48:47;;;;;;;0.10;0.10;;;;;;;;;;5081745;28;20237;-72
2021/11/10 08:51:13;;;;;;;0.10;0.10;;;;;;;;;;5084958;28;20242;-72
2021/11/10 08:53:39;;;;;;;0.17;0.17;;;;;;;;;;5086002;28;20208;-70
2021/11/10 08:56:07;;;;;;;0.17;0.17;;;;;;;;;;5086147;28;20212;-72
2021/11/10 08:58:34;;;;;;;0.10;0.10;;;;;;;;;;5086230;28;20478;-72
2021/11/10 09:01:00;;;;;;;0.10;0.10;;;;;;;;;;5085683;28;20202;-72
2021/11/10 09:03:27;;;;;;;0.10;0.10;;;;;;;;;;5085655;28;20204;-71
2021/11/10 09:05:53;;;;;;;0.10;0.10;;;;;;;;;;5085573;28;20202;-70
2021/11/10 09:08:20;;;;;;;0.10;0.10;;;;;;;;;;5085345;28;20202;-71
2021/11/10 09:10:47;;;;;;;0.10;0.10;;;;;;;;;;5083932;28;20225;-70
2021/11/10 09:13:14;;;;;;;0.63;0.63;;;;;;;;;;5065886;28;20249;-72
2021/11/10 09:15:41;;;;;;;0.10;0.10;;;;;;;;;;5080224;28;20421;-72
2021/11/10 09:18:08;;;;;;;0.10;0.10;;;;;;;;;;5080020;28;20207;-71
2021/11/10 09:20:35;;;;;;;0.10;0.10;;;;;;;;;;5084908;28;20266;-72
2021/11/10 09:23:04;;;;;;;0.10;0.10;;;;;;;;;;5087450;28;20552;-72
2021/11/10 09:25:33;;;;;;;0.10;0.10;;;;;;;;;;5095036;28;20209;-71
2021/11/10 09:28:00;;;;;;;18.60;10.67;;;;;;;;;;5089579;28;20211;-72
2021/11/10 09:30:29;;;;;;;0.10;0.10;;;;;;;;;;5085153;28;20276;-72
2021/11/10 09:32:56;;;;;;;0.10;0.10;;;;;;;;;;5085033;28;20294;-73
2021/11/10 09:35:24;;;;;;;0.10;0.10;;;;;;;;;;5085413;28;20211;-73
2021/11/10 09:37:53;;;;;;;0.10;0.10;;;;;;;;;;5085455;28;20499;-72
2021/11/10 09:40:20;;;;;;;0.20;0.20;;;;;;;;;;5085327;28;20298;-69
2021/11/10 09:42:47;;;;;;;0.10;0.10;;;;;;;;;;5085173;28;20298;-70
2021/11/10 09:45:15;;;;;;;0.10;0.10;;;;;;;;;;5084756;28;20211;-73
2021/11/10 09:47:43;;;;;;;0.10;0.10;;;;;;;;;;5085035;28;20202;-70
2021/11/10 09:50:10;;;;;;;0.10;0.10;;;;;;;;;;5085082;28;20224;-68
2021/11/10 09:52:37;;;;;;;0.10;0.10;;;;;;;;;;5085086;28;20204;-69
2021/11/10 09:55:04;;;;;;;0.07;0.07;;;;;;;;;;5085208;28;20343;-69
2021/11/10 09:57:32;;;;;;;0.50;0.50;;;;;;;;;;5086430;28;20288;-68
2021/11/10 09:59:58;;;;;;;0.10;0.10;;;;;;;;;;5087912;28;20200;-69
2021/11/10 10:02:24;;;;;;;0.10;0.10;;;;;;;;;;5084430;28;20329;-71
2021/11/10 10:04:52;;;;;;;0.10;0.10;;;;;;;;;;5084708;28;20200;-69
2021/11/10 10:07:18;;;;;;;0.10;0.10;;;;;;;;;;5084396;28;20253;-70
2021/11/10 10:09:44;;;;;;;0.63;0.63;;;;;;;;;;5086800;28;20389;-69
2021/11/10 10:12:15;;;;;;;0.10;0.10;;;;;;;;;;5084825;28;20492;-73
2021/11/10 10:14:41;;;;;;;0.10;0.10;;;;;;;;;;5084662;28;20200;-73
2021/11/10 10:17:09;;;;;;;1.20;1.20;;;;;;;;;;5084792;28;20204;-72
2021/11/10 10:19:39;;;;;;;0.10;0.10;;;;;;;;;;5069123;28;20259;-71
2021/11/10 10:22:07;;;;;;;0.10;0.10;;;;;;;;;;5074979;28;20209;-72
2021/11/10 10:24:45;;;;;;;0.10;0.10;;;;;;;;;;5084624;28;20396;-73
2021/11/10 10:27:21;;;;;;;0.10;0.10;;;;;;;;;;5084559;28;20214;-72
2021/11/10 10:29:47;;;;;;;0.10;0.10;;;;;;;;;;5086584;28;20223;-73
2021/11/10 10:32:14;;;;;;;0.10;0.10;;;;;;;;;;5084202;28;20228;-72
2021/11/10 10:34:41;;;;;;;0.10;0.10;;;;;;;;;;5083970;28;20229;-72
2021/11/10 10:37:24;;;;;;;0.10;0.10;;;;;;;;;;5083426;28;20309;-74
2021/11/10 10:40:01;;;;;;;0.10;0.10;;;;;;;;;;5083960;28;20241;-75
2021/11/10 10:42:36;;;;;;;0.10;0.10;;;;;;;;;;5084133;28;20434;-72
2021/11/10 10:45:02;;;;;;;0.10;0.10;;;;;;;;;;5083613;28;20211;-74
2021/11/10 10:47:46;;;;;;;0.10;0.10;;;;;;;;;;5085323;28;20329;-68
2021/11/10 10:50:29;;;;;;;0.10;0.10;;;;;;;;;;5083348;28;20420;-71
2021/11/10 10:52:56;;;;;;;0.10;0.10;;;;;;;;;;5084160;28;20198;-71
2021/11/10 10:55:31;;;;;;;0.10;0.10;;;;;;;;;;5087662;28;20214;-71
2021/11/10 10:57:58;;;;;;;0.10;0.10;;;;;;;;;;5086585;28;20203;-73
2021/11/10 11:00:27;;;;;;;0.10;0.10;;;;;;;;;;5084374;28;20209;-73
2021/11/10 11:02:53;;;;;;;0.10;0.10;;;;;;;;;;5083473;28;20347;-72
2021/11/10 11:05:35;;;;;;;0.10;0.10;;;;;;;;;;5083607;28;20436;-72
2021/11/10 11:08:23;;;;;;;0.10;0.10;;;;;;;;;;5082058;28;20249;-72
2021/11/10 11:10:49;;;;;;;0.10;0.10;;;;;;;;;;5083581;28;20218;-72
2021/11/10 11:13:20;;;;;;;0.10;0.10;;;;;;;;;;5083000;28;20200;-73
2021/11/10 11:15:58;;;;;;;0.03;0.03;;;;;;;;;;5083519;28;20528;-73
2021/11/10 11:18:24;;;;;;;0.10;0.10;;;;;;;;;;5083131;28;20447;-74
2021/11/10 11:20:51;;;;;;;1.00;1.00;;;;;;;;;;5083678;28;20204;-72
2021/11/10 11:23:19;;;;;;;0.10;0.10;;;;;;;;;;5083428;28;20276;-71
2021/11/10 11:25:45;;;;;;;0.10;0.10;;;;;;;;;;5086264;28;20444;-73
2021/11/10 11:28:13;;;;;;;0.10;0.10;;;;;;;;;;5083055;28;20208;-71
2021/11/10 11:30:40;;;;;;;0.10;0.10;;;;;;;;;;5087056;28;20231;-72
2021/11/10 11:33:08;;;;;;;1.50;1.50;;;;;;;;;;5083210;28;20280;-72
2021/11/10 11:35:36;;;;;;;0.10;0.10;;;;;;;;;;5083362;28;20208;-70
2021/11/10 11:38:03;;;;;;;0.10;0.10;;;;;;;;;;5093240;28;20213;-70
2021/11/10 11:40:33;;;;;;;0.10;0.10;;;;;;;;;;5086631;28;20198;-72
2021/11/10 11:43:00;;;;;;;0.10;0.10;;;;;;;;;;5088314;28;20219;-70
2021/11/10 11:45:27;;;;;;;0.10;0.10;;;;;;;;;;5083216;28;20206;-70
2021/11/10 11:47:54;;;;;;;0.10;0.10;;;;;;;;;;5083260;28;20259;-71
2021/11/10 11:50:21;;;;;;;0.10;0.10;;;;;;;;;;5082786;28;20223;-69
2021/11/10 11:52:50;;;;;;;0.10;0.10;;;;;;;;;;5083149;28;20199;-71
2021/11/10 11:55:19;;;;;;;0.10;0.10;;;;;;;;;;5082891;28;20203;-70
2021/11/10 11:57:48;;;;;;;0.10;0.10;;;;;;;;;;5078777;28;20203;-71
2021/11/10 12:00:17;;;;;;;0.10;0.10;;;;;;;;;;5082581;28;20203;-71
2021/11/10 12:02:46;;;;;;;0.10;0.10;;;;;;;;;;5082964;28;20210;-72
2021/11/10 12:05:14;;;;;;;0.10;0.10;;;;;;;;;;5082702;28;20207;-71
2021/11/10 12:07:41;;;;;;;0.10;0.10;;;;;;;;;;5082549;28;20239;-71
2021/11/10 12:10:28;;;;;;;0.10;0.10;;;;;;;;;;5082420;28;20442;-70
2021/11/10 12:13:04;;;;;;;0.10;0.10;;;;;;;;;;5087214;28;20243;-70
2021/11/10 12:15:58;;;;;;;0.20;0.20;;;;;;;;;;5084939;28;20532;-69
2021/11/10 12:18:25;;;;;;;0.10;0.10;;;;;;;;;;5082504;28;20199;-70
2021/11/10 12:20:57;;;;;;;0.10;0.10;;;;;;;;;;5085661;28;20509;-70
2021/11/10 12:23:23;;;;;;;0.10;0.10;;;;;;;;;;5089728;28;20308;-70
2021/11/10 12:26:01;;;;;;;0.87;0.87;;;;;;;;;;5085027;28;20256;-71
2021/11/10 12:28:42;;;;;;;0.37;0.37;;;;;;;;;;5086800;28;20241;-71
2021/11/10 12:31:23;;;;;;;0.10;0.10;;;;;;;;;;5086210;28;20372;-72
2021/11/10 12:33:51;;;;;;;0.10;0.10;;;;;;;;;;5085850;28;20210;-70
2021/11/10 12:36:17;;;;;;;0.10;0.10;;;;;;;;;;5086907;28;20335;-71
2021/11/10 12:38:48;;;;;;;0.10;0.10;;;;;;;;;;5082163;28;20199;-70
2021/11/10 12:41:14;;;;;;;0.10;0.10;;;;;;;;;;5086212;28;20201;-70
2021/11/10 12:43:41;;;;;;;0.10;0.10;;;;;;;;;;5086259;28;20444;-71
2021/11/10 12:46:12;;;;;;;0.10;0.10;;;;;;;;;;5086436;28;20210;-71
2021/11/10 12:48:40;;;;;;;0.10;0.10;;;;;;;;;;5086302;28;20502;-70
2021/11/10 12:51:19;;;;;;;1.10;1.10;;;;;;;;;;5081400;28;20223;-72
2021/11/10 12:53:46;;;;;;;0.10;0.10;;;;;;;;;;5081019;28;20202;-70
2021/11/10 12:56:12;;;;;;;0.10;0.10;;;;;;;;;;5085938;28;20267;-70
2021/11/10 12:58:39;;;;;;;0.10;0.10;;;;;;;;;;5086054;28;20207;-71
2021/11/10 13:01:07;;;;;;;0.10;0.10;;;;;;;;;;5081076;28;20206;-71
2021/11/10 13:03:35;;;;;;;0.10;0.10;;;;;;;;;;5086317;28;20286;-74
2021/11/10 13:06:06;;;;;;;0.20;0.20;;;;;;;;;;5088003;28;20403;-72
2021/11/10 13:08:51;;;;;;;0.10;0.10;;;;;;;;;;5085380;28;20207;-74
2021/11/10 13:11:17;;;;;;;0.10;0.10;;;;;;;;;;5095783;28;20408;-71
2021/11/10 13:13:44;;;;;;;0.10;0.10;;;;;;;;;;5085916;28;20424;-73
2021/11/10 13:16:10;;;;;;;0.10;0.10;;;;;;;;;;5085844;28;20205;-73
2021/11/10 13:18:36;;;;;;;0.10;0.10;;;;;;;;;;5085877;28;20448;-72
2021/11/10 13:21:03;;;;;;;0.37;0.37;;;;;;;;;;5085761;28;20462;-71
2021/11/10 13:23:32;;;;;;;0.20;0.20;;;;;;;;;;5085636;28;20206;-71
2021/11/10 13:25:59;;;;;;;0.10;0.10;;;;;;;;;;5085541;28;20244;-71
2021/11/10 13:28:26;;;;;;;0.10;0.10;;;;;;;;;;5085265;28;20221;-72
2021/11/10 13:30:53;;;;;;;0.10;0.10;;;;;;;;;;5085600;28;20274;-72
2021/11/10 13:33:24;;;;;;;0.13;0.13;;;;;;;;;;5085212;28;20269;-71
2021/11/10 13:35:58;;;;;;;0.10;0.10;;;;;;;;;;5085515;28;20205;-72
2021/11/10 13:38:35;;;;;;;0.10;0.10;;;;;;;;;;5084425;28;20255;-71
2021/11/10 13:41:15;;;;;;;0.10;0.10;;;;;;;;;;5084769;28;20374;-72
2021/11/10 13:43:46;;;;;;;0.10;0.10;;;;;;;;;;5082785;28;20237;-70
2021/11/10 13:46:13;;;;;;;0.10;0.10;;;;;;;;;;5083657;28;20431;-70
2021/11/10 13:48:39;;;;;;;0.50;0.50;;;;;;;;;;5084183;28;20428;-71
2021/11/10 13:51:06;;;;;;;0.10;0.10;;;;;;;;;;5085017;28;20242;-71
2021/11/10 13:53:32;;;;;;;0.10;0.10;;;;;;;;;;5084945;28;20444;-71
2021/11/10 13:55:59;;;;;;;0.10;0.10;;;;;;;;;;5085135;28;20228;-71
2021/11/10 13:58:27;;;;;;;0.10;0.10;;;;;;;;;;5085023;28;20228;-71
2021/11/10 14:00:53;;;;;;;0.20;0.20;;;;;;;;;;5084819;28;20208;-71
2021/11/10 14:03:19;;;;;;;4.27;4.13;;;;;;;;;;5085028;28;20226;-70
2021/11/10 14:05:45;;;;;;;0.10;0.10;;;;;;;;;;5084624;28;20211;-72
2021/11/10 14:08:12;;;;;;;0.10;0.10;;;;;;;;;;5084766;28;20243;-71
2021/11/10 14:10:38;;;;;;;0.10;0.10;;;;;;;;;;5084626;28;20263;-71
2021/11/10 14:13:05;;;;;;;0.13;0.13;;;;;;;;;;5084535;28;20204;-72
2021/11/10 14:15:35;;;;;;;0.37;0.37;;;;;;;;;;5084654;28;20508;-71
2021/11/10 14:18:02;;;;;;;1.30;1.30;;;;;;;;;;5084699;28;20411;-75
2021/11/10 14:20:30;;;;;;;0.30;0.30;;;;;;;;;;5084731;28;20243;-73
2021/11/10 14:23:00;;;;;;;0.10;0.10;;;;;;;;;;5084396;28;20233;-73
2021/11/10 14:25:28;;;;;;;0.10;0.10;;;;;;;;;;5087095;28;20204;-73
2021/11/10 14:27:55;;;;;;;0.10;0.10;;;;;;;;;;5083848;28;20236;-69
2021/11/10 14:30:25;;;;;;;0.10;0.10;;;;;;;;;;5084148;28;20204;-67
2021/11/10 14:32:58;;;;;;;0.10;0.10;;;;;;;;;;5085310;28;20229;-67
2021/11/10 14:35:25;;;;;;;0.10;0.10;;;;;;;;;;5084088;28;20205;-68
2021/11/10 14:37:51;;;;;;;0.50;0.50;;;;;;;;;;5083880;28;20215;-69
2021/11/10 14:40:25;;;;;;;1.03;1.03;;;;;;;;;;5084021;28;20283;-70
2021/11/10 14:42:51;;;;;;;0.10;0.10;;;;;;;;;;5084123;28;20224;-71
2021/11/10 14:45:18;;;;;;;0.10;0.10;;;;;;;;;;5084261;28;20480;-68